Time;durP1;ratioP1;P1;durP2;ratioP2;P2;SDS_P1;SDS_P2;PMS_P1;PMS_P2;Temp;Humidity;BMP_temperature;BMP_pressure;BME280_temperature;BME280_humidity;BME280_pressure;Samples;Min_cycle;Max_cycle;Signal;HPM_P1;HPM_P2
2023/08/03 00:00:21;;;;;;;0.10;0.10;;;;;;;16.44;84.40;95891.72;5031654;28;20076;-73
2023/08/03 00:02:49;;;;;;;0.10;0.10;;;;;;;16.44;84.18;95889.03;5030962;28;20029;-72
2023/08/03 00:05:17;;;;;;;0.10;0.10;;;;;;;16.43;84.27;95882.81;5031655;28;20095;-74
2023/08/03 00:07:45;;;;;;;0.03;0.03;;;;;;;16.43;84.36;95880.13;5025436;28;20042;-74
2023/08/03 00:10:13;;;;;;;0.10;0.10;;;;;;;16.43;84.58;95887.41;5023228;28;20026;-74
2023/08/03 00:12:41;;;;;;;0.10;0.10;;;;;;;16.47;84.40;95883.09;5030914;28;20076;-75
2023/08/03 00:15:09;;;;;;;0.08;0.08;;;;;;;16.48;84.52;95888.22;5030290;28;20494;-73
2023/08/03 00:17:39;;;;;;;0.10;0.10;;;;;;;16.47;84.39;95894.69;5026992;28;20045;-72
2023/08/03 00:20:08;;;;;;;0.10;0.10;;;;;;;16.53;84.15;95887.38;5031194;28;20073;-72
2023/08/03 00:22:36;;;;;;;0.22;0.22;;;;;;;16.50;83.82;95883.38;5030522;28;20033;-75
2023/08/03 00:25:04;;;;;;;0.08;0.08;;;;;;;16.53;83.89;95890.06;5031270;28;20037;-73
2023/08/03 00:27:32;;;;;;;0.10;0.10;;;;;;;16.53;83.91;95896.25;5031460;28;20069;-75
2023/08/03 00:30:00;;;;;;;0.10;0.10;;;;;;;16.55;83.53;95892.50;5029448;28;20095;-75
2023/08/03 00:32:27;;;;;;;0.10;0.10;;;;;;;16.55;83.39;95896.00;5023085;28;20189;-75
2023/08/03 00:34:56;;;;;;;0.10;0.10;;;;;;;16.56;83.50;95896.81;5024070;28;20395;-72
2023/08/03 00:37:24;;;;;;;0.05;0.05;;;;;;;16.61;82.77;95902.97;5026735;28;20406;-73
2023/08/03 00:39:52;;;;;;;0.40;0.40;;;;;;;16.66;82.99;95907.59;5028240;28;20516;-73
2023/08/03 00:42:20;;;;;;;0.08;0.08;;;;;;;16.67;82.84;95899.22;5030049;28;20398;-72
2023/08/03 00:44:48;;;;;;;0.10;0.10;;;;;;;16.69;82.91;95907.03;5027283;28;20069;-72
2023/08/03 00:47:15;;;;;;;0.10;0.10;;;;;;;16.72;82.87;95896.50;5032129;28;20061;-72
2023/08/03 00:49:43;;;;;;;0.10;0.10;;;;;;;16.84;81.39;95898.88;5031067;28;20037;-73
2023/08/03 00:52:12;;;;;;;0.10;0.10;;;;;;;16.84;80.88;95886.22;5026996;28;20466;-73
2023/08/03 00:54:40;;;;;;;0.00;0.00;;;;;;;16.92;79.95;95892.13;5031507;28;20487;-73
2023/08/03 00:57:07;;;;;;;0.10;0.10;;;;;;;16.96;78.64;95883.19;5026064;28;20539;-73
2023/08/03 00:59:35;;;;;;;0.10;0.10;;;;;;;17.05;77.79;95881.53;5030907;28;20045;-73
2023/08/03 01:02:03;;;;;;;0.08;0.08;;;;;;;17.08;77.22;95878.28;5032743;28;20383;-73
2023/08/03 01:04:31;;;;;;;0.15;0.15;;;;;;;17.10;76.96;95878.00;5018363;28;20038;-73
2023/08/03 01:06:58;;;;;;;0.10;0.10;;;;;;;17.14;76.20;95881.75;5039443;28;20132;-73
2023/08/03 01:09:27;;;;;;;0.20;0.20;;;;;;;17.07;76.73;95884.75;5025983;28;20438;-73
2023/08/03 01:11:55;;;;;;;0.10;0.10;;;;;;;17.08;76.66;95889.06;5028125;28;20129;-73
2023/08/03 01:14:24;;;;;;;0.08;0.08;;;;;;;17.05;77.11;95894.19;5031066;28;20053;-73
2023/08/03 01:16:52;;;;;;;0.10;0.10;;;;;;;17.03;77.21;95885.59;5021629;28;20566;-73
2023/08/03 01:19:20;;;;;;;0.10;0.10;;;;;;;17.01;77.01;95888.59;5028676;28;20033;-72
2023/08/03 01:21:47;;;;;;;0.10;0.10;;;;;;;17.00;77.71;95889.66;5027717;28;20076;-72
2023/08/03 01:24:16;;;;;;;0.10;0.10;;;;;;;16.94;78.43;95874.56;5029459;28;20103;-73
2023/08/03 01:26:44;;;;;;;0.22;0.22;;;;;;;16.91;79.15;95888.63;5019636;28;20405;-72
2023/08/03 01:29:12;;;;;;;0.10;0.10;;;;;;;16.91;79.46;95880.53;5029007;28;20132;-72
2023/08/03 01:31:40;;;;;;;0.13;0.13;;;;;;;16.91;79.33;95877.84;5028424;28;20473;-72
2023/08/03 01:34:09;;;;;;;0.20;0.20;;;;;;;16.93;78.82;95874.84;5022447;28;20041;-72
2023/08/03 01:36:36;;;;;;;0.15;0.15;;;;;;;17.00;78.41;95876.19;5028759;28;20045;-72
2023/08/03 01:39:08;;;;;;;0.10;0.10;;;;;;;16.97;78.53;95865.94;5029033;28;20487;-73
2023/08/03 01:41:38;;;;;;;0.10;0.10;;;;;;;16.94;78.68;95863.78;5029182;28;20136;-72
2023/08/03 01:44:22;;;;;;;0.03;0.03;;;;;;;16.94;78.50;95873.78;5046878;28;20052;-72
2023/08/03 01:46:50;;;;;;;0.15;0.15;;;;;;;16.91;78.80;95871.66;5031209;28;20133;-72
2023/08/03 01:49:18;;;;;;;0.22;0.22;;;;;;;16.93;78.93;95877.53;5032675;28;20517;-72
2023/08/03 01:51:46;;;;;;;0.05;0.05;;;;;;;16.94;78.22;95879.97;5026455;28;20487;-72
2023/08/03 01:54:14;;;;;;;0.10;0.10;;;;;;;16.93;78.31;95883.75;5041613;28;20053;-72
2023/08/03 01:56:43;;;;;;;0.40;0.40;;;;;;;16.86;78.26;95878.66;5032896;28;20463;-72
2023/08/03 01:59:11;;;;;;;0.10;0.10;;;;;;;16.82;78.56;95891.06;5032344;28;20045;-72
2023/08/03 02:01:39;;;;;;;0.10;0.10;;;;;;;16.82;78.21;95882.19;5024755;28;20550;-73
2023/08/03 02:04:07;;;;;;;0.40;0.40;;;;;;;16.79;78.37;95875.47;5033624;28;20399;-73
2023/08/03 02:06:38;;;;;;;0.10;0.10;;;;;;;16.78;78.29;95892.72;5031665;28;20045;-72
2023/08/03 02:09:05;;;;;;;0.10;0.10;;;;;;;16.71;78.61;95894.09;5031689;28;20049;-72
2023/08/03 02:11:34;;;;;;;0.20;0.20;;;;;;;16.69;78.63;95893.56;5027457;28;20037;-72
2023/08/03 02:14:03;;;;;;;0.10;0.10;;;;;;;16.71;78.17;95886.03;5024649;28;20046;-72
2023/08/03 02:16:31;;;;;;;0.20;0.20;;;;;;;16.67;77.57;95858.81;5026777;28;20048;-72
2023/08/03 02:18:59;;;;;;;0.20;0.20;;;;;;;16.73;76.73;95895.41;5030646;28;20050;-73
2023/08/03 02:21:27;;;;;;;0.00;0.00;;;;;;;16.71;76.17;95896.81;5029160;28;20050;-73
2023/08/03 02:23:55;;;;;;;0.40;0.40;;;;;;;16.73;75.44;95890.03;5025212;28;20473;-73
2023/08/03 02:26:22;;;;;;;0.10;0.10;;;;;;;16.78;74.82;95894.59;5032460;28;20142;-73
2023/08/03 02:28:50;;;;;;;0.10;0.10;;;;;;;16.78;74.64;95900.81;5033217;28;20566;-73
2023/08/03 02:31:19;;;;;;;0.10;0.10;;;;;;;16.81;74.31;95904.84;5032184;28;20041;-73
2023/08/03 02:33:50;;;;;;;0.10;0.10;;;;;;;16.76;74.76;95896.75;5031841;28;20411;-72
2023/08/03 02:36:25;;;;;;;0.10;0.10;;;;;;;16.70;74.85;95901.38;5032215;28;20128;-72
2023/08/03 02:38:57;;;;;;;0.05;0.05;;;;;;;16.68;74.95;95900.84;5031510;28;20045;-72
2023/08/03 02:41:25;;;;;;;0.20;0.20;;;;;;;16.70;74.83;95882.53;5025801;28;20041;-72
2023/08/03 02:43:53;;;;;;;0.10;0.10;;;;;;;16.71;75.06;95912.97;5029466;28;20048;-72
2023/08/03 02:46:30;;;;;;;0.10;0.10;;;;;;;16.66;75.77;95919.16;5032010;28;20108;-72
2023/08/03 02:48:58;;;;;;;0.10;0.10;;;;;;;16.65;75.65;95924.81;5031609;28;20569;-72
2023/08/03 02:51:28;;;;;;;0.10;0.10;;;;;;;16.62;75.89;95934.25;5026139;28;20063;-72
2023/08/03 02:53:56;;;;;;;0.10;0.10;;;;;;;16.69;75.67;95917.81;5030747;28;20080;-72
2023/08/03 02:56:25;;;;;;;0.10;0.10;;;;;;;16.65;76.23;95930.22;5042412;28;20589;-73
2023/08/03 02:58:54;;;;;;;0.20;0.20;;;;;;;16.64;76.24;95929.41;5032256;28;20135;-72
2023/08/03 03:01:36;;;;;;;0.15;0.15;;;;;;;16.63;76.37;95927.78;5023834;28;20045;-73
2023/08/03 03:04:04;;;;;;;0.10;0.10;;;;;;;16.65;76.09;95922.13;5030550;28;20041;-73
2023/08/03 03:06:33;;;;;;;0.10;0.10;;;;;;;16.66;75.82;95932.63;5027048;28;20109;-73
2023/08/03 03:09:01;;;;;;;0.10;0.10;;;;;;;16.69;75.30;95920.50;5050945;28;20053;-72
2023/08/03 03:11:29;;;;;;;0.10;0.10;;;;;;;16.73;75.15;95929.63;5052369;28;20025;-73
2023/08/03 03:13:56;;;;;;;0.13;0.13;;;;;;;16.76;75.00;95937.19;5054683;28;20076;-72
2023/08/03 03:16:26;;;;;;;0.10;0.10;;;;;;;16.73;75.04;95930.44;5043922;28;20045;-72
2023/08/03 03:18:57;;;;;;;0.10;0.10;;;;;;;16.78;74.07;95943.13;5031348;28;20087;-72
2023/08/03 03:21:28;;;;;;;0.10;0.10;;;;;;;16.81;73.88;95934.50;5029965;28;20049;-72
2023/08/03 03:23:56;;;;;;;0.10;0.10;;;;;;;16.80;73.44;95930.97;5033818;28;20057;-72
2023/08/03 03:26:23;;;;;;;0.10;0.10;;;;;;;16.80;73.17;95920.19;5032634;28;20045;-72
2023/08/03 03:28:51;;;;;;;0.10;0.10;;;;;;;16.85;72.41;95930.13;5031172;28;20423;-72
2023/08/03 03:31:27;;;;;;;0.10;0.10;;;;;;;16.83;72.46;95929.59;5030440;28;20044;-71
2023/08/03 03:33:59;;;;;;;0.22;0.22;;;;;;;16.81;72.64;95926.41;5032276;28;20391;-72
2023/08/03 03:36:26;;;;;;;0.20;0.20;;;;;;;16.79;72.47;95926.69;5027319;28;20068;-71
2023/08/03 03:38:54;;;;;;;0.20;0.20;;;;;;;16.84;72.57;95932.03;5030350;28;20516;-71
2023/08/03 03:41:23;;;;;;;0.15;0.15;;;;;;;16.83;72.60;95924.22;5030674;28;20038;-72
2023/08/03 03:43:51;;;;;;;0.10;0.10;;;;;;;16.84;72.40;95932.03;5029813;28;20087;-72
2023/08/03 03:46:18;;;;;;;0.10;0.10;;;;;;;16.83;72.12;95938.50;5031094;28;20143;-72
2023/08/03 03:48:46;;;;;;;0.10;0.10;;;;;;;16.85;72.31;95925.56;5021891;28;20499;-72
2023/08/03 03:51:18;;;;;;;0.10;0.10;;;;;;;16.83;72.31;95925.03;5026711;28;20103;-71
2023/08/03 03:53:50;;;;;;;0.13;0.13;;;;;;;16.80;72.54;95930.19;5030331;28;20445;-71
2023/08/03 03:56:18;;;;;;;0.17;0.17;;;;;;;16.78;72.69;95925.06;5024624;28;20045;-71
2023/08/03 03:58:45;;;;;;;0.10;0.10;;;;;;;16.81;72.37;95923.72;5030536;28;20042;-71
2023/08/03 04:01:13;;;;;;;0.10;0.10;;;;;;;16.80;72.60;95930.97;5031092;28;20041;-72
2023/08/03 04:03:41;;;;;;;0.10;0.10;;;;;;;16.82;72.72;95931.50;5030024;28;20095;-73
2023/08/03 04:06:11;;;;;;;0.10;0.10;;;;;;;16.79;72.76;95931.25;5029874;28;20049;-73
2023/08/03 04:08:40;;;;;;;0.10;0.10;;;;;;;16.79;72.89;95936.66;5031656;28;20080;-73
2023/08/03 04:11:08;;;;;;;0.00;0.00;;;;;;;16.81;72.81;95937.19;5030720;28;20049;-73
2023/08/03 04:13:35;;;;;;;0.10;0.10;;;;;;;16.82;73.00;95941.47;5028795;28;20043;-73
2023/08/03 04:16:03;;;;;;;0.10;0.10;;;;;;;16.83;72.79;95940.38;5029976;28;20147;-73
2023/08/03 04:18:34;;;;;;;0.10;0.10;;;;;;;16.84;72.67;95937.41;5029953;28;20132;-72
2023/08/03 04:21:03;;;;;;;0.10;0.10;;;;;;;16.85;72.72;95941.72;5023320;28;20523;-72
2023/08/03 04:23:31;;;;;;;0.10;0.10;;;;;;;16.86;72.80;95943.34;5027342;28;20053;-72
2023/08/03 04:26:04;;;;;;;0.10;0.10;;;;;;;16.87;72.45;95941.47;5027052;28;20053;-72
2023/08/03 04:28:31;;;;;;;0.10;0.10;;;;;;;16.89;72.38;95947.38;5029717;28;20046;-72
2023/08/03 04:30:59;;;;;;;0.15;0.15;;;;;;;16.92;72.27;95946.84;5028725;28;20054;-73
2023/08/03 04:33:28;;;;;;;0.10;0.10;;;;;;;16.94;71.73;95952.75;5028915;28;20045;-73
2023/08/03 04:36:00;;;;;;;0.10;0.10;;;;;;;16.95;71.89;95951.66;5028763;28;20495;-72
2023/08/03 04:38:33;;;;;;;0.17;0.17;;;;;;;16.97;71.10;95938.72;5026628;28;20495;-73
2023/08/03 04:41:04;;;;;;;0.10;0.10;;;;;;;17.04;70.82;95957.28;5027638;28;20415;-73
2023/08/03 04:43:36;;;;;;;0.10;0.10;;;;;;;17.07;69.84;95954.84;5028901;28;20049;-74
2023/08/03 04:46:06;;;;;;;0.10;0.10;;;;;;;17.07;70.32;95951.34;5029746;28;20038;-73
2023/08/03 04:48:34;;;;;;;0.10;0.10;;;;;;;17.10;70.21;95956.19;5027548;28;20503;-73
2023/08/03 04:51:06;;;;;;;0.20;0.20;;;;;;;17.10;69.53;95935.44;5029817;28;20033;-72
2023/08/03 04:53:34;;;;;;;0.10;0.10;;;;;;;17.11;69.68;95950.53;5029227;28;20541;-73
2023/08/03 04:56:02;;;;;;;0.20;0.20;;;;;;;17.08;70.01;95951.09;5032356;28;20557;-73
2023/08/03 04:58:31;;;;;;;0.10;0.10;;;;;;;17.15;69.06;95945.38;5037189;28;20111;-72
2023/08/03 05:00:59;;;;;;;0.10;0.10;;;;;;;17.19;68.35;95944.56;5041957;28;20045;-72
2023/08/03 05:03:27;;;;;;;0.10;0.10;;;;;;;17.17;68.71;95946.72;5045848;28;20339;-72
2023/08/03 05:05:55;;;;;;;0.10;0.10;;;;;;;17.15;68.74;95951.59;5036136;28;20096;-73
2023/08/03 05:08:24;;;;;;;0.20;0.20;;;;;;;17.16;67.94;95942.41;5032399;28;20124;-73
2023/08/03 05:10:53;;;;;;;0.30;0.30;;;;;;;17.24;68.10;95955.31;5029770;28;20406;-73
2023/08/03 05:13:22;;;;;;;0.10;0.10;;;;;;;17.20;68.19;95958.84;5027306;28;20091;-73
2023/08/03 05:15:51;;;;;;;0.10;0.10;;;;;;;17.19;68.08;95959.94;5029666;28;20057;-73
2023/08/03 05:18:19;;;;;;;0.10;0.10;;;;;;;17.24;67.67;95932.94;5033654;28;20045;-73
2023/08/03 05:20:46;;;;;;;0.10;0.10;;;;;;;17.23;67.48;95966.41;5034812;28;20037;-73
2023/08/03 05:23:14;;;;;;;0.10;0.10;;;;;;;17.27;67.06;95953.97;5022863;28;20057;-73
2023/08/03 05:25:42;;;;;;;0.10;0.10;;;;;;;17.27;66.79;95958.53;5034936;28;20048;-73
2023/08/03 05:28:09;;;;;;;0.00;0.00;;;;;;;17.28;66.17;95962.84;5034567;28;20065;-73
2023/08/03 05:30:37;;;;;;;0.10;0.10;;;;;;;17.27;65.77;95966.63;5034463;28;20037;-73
2023/08/03 05:33:07;;;;;;;0.10;0.10;;;;;;;17.30;65.83;95966.09;5034632;28;20051;-73
2023/08/03 05:35:34;;;;;;;0.10;0.10;;;;;;;17.27;65.46;95974.72;5034653;28;20116;-74
2023/08/03 05:38:02;;;;;;;0.13;0.13;;;;;;;17.24;65.46;95960.69;5034399;28;20096;-73
2023/08/03 05:40:30;;;;;;;0.13;0.13;;;;;;;17.26;65.47;95973.91;5029705;28;20128;-73
2023/08/03 05:42:57;;;;;;;0.10;0.10;;;;;;;17.25;66.05;95986.59;5030716;28;20116;-74
2023/08/03 05:45:43;;;;;;;0.05;0.05;;;;;;;17.23;66.22;95975.25;5032669;28;20041;-74
2023/08/03 05:48:15;;;;;;;0.10;0.10;;;;;;;17.24;66.37;95981.47;5032122;28;20124;-74
2023/08/03 05:50:43;;;;;;;0.63;0.63;;;;;;;17.22;66.36;95987.16;5030464;28;21644;-74
2023/08/03 05:53:12;;;;;;;0.10;0.10;;;;;;;17.26;66.75;95982.00;5033988;28;20042;-74
2023/08/03 05:55:40;;;;;;;0.10;0.10;;;;;;;17.20;67.19;95978.53;5034472;28;20041;-74
2023/08/03 05:58:10;;;;;;;0.10;0.10;;;;;;;17.21;66.85;95984.75;5033722;28;20046;-74
2023/08/03 06:00:40;;;;;;;0.10;0.10;;;;;;;17.15;67.59;95992.03;5034161;28;20601;-73
2023/08/03 06:03:13;;;;;;;0.03;0.03;;;;;;;17.14;67.69;95986.91;5033692;28;20048;-74
2023/08/03 06:05:43;;;;;;;0.20;0.20;;;;;;;17.18;68.15;95999.56;5034014;28;20056;-74
2023/08/03 06:08:13;;;;;;;0.05;0.05;;;;;;;17.10;68.60;95996.66;5033492;28;20045;-73
2023/08/03 06:10:41;;;;;;;0.10;0.10;;;;;;;17.04;68.87;95998.53;5033903;28;20143;-74
2023/08/03 06:13:11;;;;;;;0.10;0.10;;;;;;;17.10;68.56;96002.03;5033828;28;20041;-73
2023/08/03 06:15:38;;;;;;;0.10;0.10;;;;;;;17.05;68.80;96005.53;5033968;28;20045;-74
2023/08/03 06:18:09;;;;;;;0.10;0.10;;;;;;;17.04;68.83;95974.28;5033490;28;20046;-74
2023/08/03 06:20:41;;;;;;;0.20;0.20;;;;;;;17.03;69.00;96002.31;5033686;28;20080;-74
2023/08/03 06:23:13;;;;;;;0.10;0.10;;;;;;;17.03;69.21;95999.63;5033843;28;20125;-74
2023/08/03 06:25:41;;;;;;;0.10;0.10;;;;;;;17.04;68.65;95998.53;5029530;28;20045;-74
2023/08/03 06:28:10;;;;;;;0.10;0.10;;;;;;;17.11;67.82;96009.84;5033083;28;20048;-74
2023/08/03 06:30:38;;;;;;;0.10;0.10;;;;;;;17.12;67.38;96013.34;5033453;28;20048;-74
2023/08/03 06:33:05;;;;;;;0.13;0.13;;;;;;;17.08;67.68;96018.47;5033390;28;20037;-74
2023/08/03 06:35:37;;;;;;;0.10;0.10;;;;;;;17.11;66.46;96012.56;5033651;28;20052;-74
2023/08/03 06:38:06;;;;;;;0.10;0.10;;;;;;;17.16;66.95;96019.78;5033779;28;20126;-74
2023/08/03 06:40:35;;;;;;;0.20;0.20;;;;;;;17.14;66.41;96028.16;5034036;28;20051;-74
2023/08/03 06:43:03;;;;;;;0.10;0.10;;;;;;;17.17;66.18;96040.28;5033667;28;20044;-74
2023/08/03 06:45:31;;;;;;;0.20;0.20;;;;;;;17.19;66.07;96044.34;5033342;28;20037;-74
2023/08/03 06:48:00;;;;;;;0.10;0.10;;;;;;;17.17;66.28;96049.19;5032901;28;20550;-74
2023/08/03 06:50:30;;;;;;;0.10;0.10;;;;;;;17.17;66.15;96034.91;5033085;28;20112;-74
2023/08/03 06:52:58;;;;;;;0.10;0.10;;;;;;;17.18;66.25;96053.50;5032942;28;20048;-75
2023/08/03 06:55:27;;;;;;;0.10;0.10;;;;;;;17.18;66.25;96050.00;5033365;28;20073;-74
2023/08/03 06:57:55;;;;;;;0.13;0.13;;;;;;;17.16;66.46;96054.84;5033148;28;20049;-75
2023/08/03 07:00:23;;;;;;;0.10;0.10;;;;;;;17.13;67.22;96064.28;5033249;28;20065;-74
2023/08/03 07:02:52;;;;;;;0.10;0.10;;;;;;;17.12;67.37;96054.63;5033203;28;20042;-75
2023/08/03 07:05:23;;;;;;;0.10;0.10;;;;;;;17.11;68.00;96049.50;5033511;28;20117;-75
2023/08/03 07:07:50;;;;;;;0.10;0.10;;;;;;;17.10;68.16;96055.97;5033191;28;20092;-75
2023/08/03 07:10:18;;;;;;;0.17;0.17;;;;;;;17.11;68.25;96066.47;5025413;28;20124;-74
2023/08/03 07:12:47;;;;;;;0.10;0.10;;;;;;;17.11;68.58;96068.38;5033691;28;20037;-74
2023/08/03 07:15:16;;;;;;;0.20;0.20;;;;;;;17.13;68.56;96064.28;5033098;28;20046;-74
2023/08/03 07:17:44;;;;;;;0.10;0.10;;;;;;;17.05;68.17;96061.34;5034648;28;20082;-74
2023/08/03 07:20:12;;;;;;;0.10;0.10;;;;;;;17.08;68.39;96067.00;5034987;28;20148;-75
2023/08/03 07:22:40;;;;;;;0.10;0.10;;;;;;;17.08;68.01;96041.94;5037229;28;20041;-76
2023/08/03 07:25:08;;;;;;;0.10;0.10;;;;;;;17.09;67.58;96071.31;5027725;28;20084;-73
2023/08/03 07:27:36;;;;;;;0.08;0.08;;;;;;;17.10;67.05;96080.22;5032774;28;20045;-74
2023/08/03 07:30:06;;;;;;;0.10;0.10;;;;;;;17.16;67.05;96079.94;5037732;28;20621;-73
2023/08/03 07:32:35;;;;;;;0.15;0.15;;;;;;;17.17;66.29;96078.03;5038196;28;20033;-75
2023/08/03 07:35:03;;;;;;;0.10;0.10;;;;;;;17.20;66.19;96077.50;5032602;28;20042;-74
2023/08/03 07:37:30;;;;;;;0.08;0.08;;;;;;;17.23;66.37;96083.13;5032607;28;20049;-74
2023/08/03 07:39:58;;;;;;;0.20;0.20;;;;;;;17.31;65.70;96089.88;5031699;28;20073;-75
2023/08/03 07:42:26;;;;;;;0.10;0.10;;;;;;;17.33;65.44;96087.72;5041473;28;20038;-74
2023/08/03 07:44:54;;;;;;;0.10;0.10;;;;;;;17.31;64.96;96089.88;5041712;28;20068;-73
2023/08/03 07:47:23;;;;;;;0.10;0.10;;;;;;;17.36;64.97;96089.03;5033848;28;20041;-74
2023/08/03 07:49:54;;;;;;;0.10;0.10;;;;;;;17.33;64.70;96100.41;5038018;28;20131;-75
2023/08/03 07:52:21;;;;;;;0.10;0.10;;;;;;;17.32;64.38;96088.00;5039430;28;20516;-74
2023/08/03 07:54:49;;;;;;;0.20;0.20;;;;;;;17.32;64.96;96104.19;5031687;28;20514;-74
2023/08/03 07:57:17;;;;;;;0.10;0.10;;;;;;;17.31;64.35;96105.25;5025302;28;20513;-75
2023/08/03 07:59:48;;;;;;;0.10;0.10;;;;;;;17.31;64.69;96110.66;5031656;28;20554;-76
2023/08/03 08:02:16;;;;;;;0.10;0.10;;;;;;;17.33;64.33;96108.50;5033820;28;20051;-74
2023/08/03 08:04:48;;;;;;;0.13;0.13;;;;;;;17.30;64.52;96106.34;5044087;28;20037;-73
2023/08/03 08:07:16;;;;;;;0.10;0.10;;;;;;;17.29;64.56;96108.22;5024230;28;20499;-74
2023/08/03 08:09:44;;;;;;;0.13;0.13;;;;;;;17.28;64.45;96112.00;5031611;28;20045;-74
2023/08/03 08:12:11;;;;;;;0.10;0.10;;;;;;;17.26;64.93;96114.16;5027877;28;20132;-74
2023/08/03 08:14:39;;;;;;;0.03;0.03;;;;;;;17.32;65.44;96117.66;5032061;28;20402;-74
2023/08/03 08:17:07;;;;;;;0.10;0.10;;;;;;;17.39;64.88;96120.88;5031192;28;20056;-74
2023/08/03 08:19:38;;;;;;;0.10;0.10;;;;;;;17.39;64.84;96112.78;5031528;28;20033;-74
2023/08/03 08:22:08;;;;;;;0.03;0.03;;;;;;;17.44;64.67;96127.03;5033945;28;20053;-74
2023/08/03 08:24:44;;;;;;;0.13;0.13;;;;;;;17.44;64.39;96112.78;5036572;28;20072;-75
2023/08/03 08:27:12;;;;;;;0.10;0.10;;;;;;;17.52;64.41;96125.69;5038660;28;20037;-75
2023/08/03 08:29:40;;;;;;;0.17;0.17;;;;;;;17.49;64.66;96137.03;5031339;28;20047;-75
2023/08/03 08:32:08;;;;;;;0.10;0.10;;;;;;;17.51;64.67;96132.16;5031795;28;20557;-75
2023/08/03 08:34:36;;;;;;;0.08;0.08;;;;;;;17.51;64.57;96132.16;5031557;28;20065;-76
2023/08/03 08:37:03;;;;;;;0.10;0.10;;;;;;;17.50;64.27;96136.75;5031366;28;20053;-74
2023/08/03 08:39:32;;;;;;;0.10;0.10;;;;;;;17.48;64.27;96146.19;5031326;28;20037;-74
2023/08/03 08:42:10;;;;;;;0.10;0.10;;;;;;;17.48;64.38;96141.59;5033513;28;20107;-75
2023/08/03 08:44:38;;;;;;;0.10;0.10;;;;;;;17.51;64.80;96146.47;5033610;28;20069;-74
2023/08/03 08:47:06;;;;;;;0.10;0.10;;;;;;;17.52;64.87;96128.38;5032432;28;20103;-74
2023/08/03 08:49:34;;;;;;;0.10;0.10;;;;;;;17.53;63.99;96157.81;5031575;28;20033;-74
2023/08/03 08:52:05;;;;;;;0.13;0.13;;;;;;;17.64;63.82;96155.91;5035232;28;20051;-74
2023/08/03 08:54:35;;;;;;;0.10;0.10;;;;;;;17.69;63.78;96142.38;5035215;28;20054;-75
2023/08/03 08:57:06;;;;;;;;;;;;;;;17.75;63.93;96146.69;5035670;28;20048;-74
2023/08/03 08:59:59;;;;;;;0.10;0.10;;;;;;;17.88;63.05;96124.50;5037311;28;19921;-75
2023/08/03 09:02:27;;;;;;;0.10;0.10;;;;;;;17.96;62.94;96150.91;5027427;28;20099;-75
2023/08/03 09:04:55;;;;;;;0.20;0.20;;;;;;;18.10;61.83;96142.22;5034898;28;20045;-76
2023/08/03 09:07:23;;;;;;;0.10;0.10;;;;;;;18.29;61.50;96164.78;5035317;28;20482;-75
2023/08/03 09:10:01;;;;;;;0.10;0.10;;;;;;;18.36;61.62;96162.59;5034183;28;20072;-74
2023/08/03 09:12:29;;;;;;;0.10;0.10;;;;;;;18.46;60.90;96162.53;5034808;28;20048;-75
2023/08/03 09:14:57;;;;;;;0.10;0.10;;;;;;;18.49;60.51;96161.97;5034845;28;20100;-75
2023/08/03 09:17:26;;;;;;;0.10;0.10;;;;;;;18.34;60.29;96168.28;5034776;28;20511;-75
2023/08/03 09:19:54;;;;;;;0.10;0.10;;;;;;;18.31;61.61;96173.44;5034595;28;20041;-75
2023/08/03 09:22:26;;;;;;;0.10;0.10;;;;;;;18.25;60.91;96163.75;5029412;28;20642;-74
2023/08/03 09:25:02;;;;;;;0.10;0.10;;;;;;;18.26;60.70;96186.97;5034210;28;20044;-75
2023/08/03 09:27:30;;;;;;;0.10;0.10;;;;;;;18.26;60.84;96193.19;5030693;28;20037;-75
2023/08/03 09:30:01;;;;;;;0.10;0.10;;;;;;;18.18;60.41;96184.84;5031766;28;20526;-74
2023/08/03 09:32:34;;;;;;;0.20;0.20;;;;;;;18.17;60.74;96189.44;5040687;28;20120;-74
2023/08/03 09:35:03;;;;;;;0.03;0.03;;;;;;;18.22;60.53;96183.22;5034541;28;20037;-75
2023/08/03 09:37:34;;;;;;;0.00;0.00;;;;;;;18.16;60.64;96198.63;5028577;28;20087;-75
2023/08/03 09:40:07;;;;;;;0.38;0.38;;;;;;;18.19;60.66;96208.06;5038183;28;20474;-74
2023/08/03 09:42:37;;;;;;;0.15;0.15;;;;;;;18.21;61.06;96209.41;5035698;28;20053;-75
2023/08/03 09:45:06;;;;;;;0.10;0.10;;;;;;;18.17;60.70;96210.25;5029993;28;20053;-74
2023/08/03 09:47:56;;;;;;;0.10;0.10;;;;;;;18.22;61.14;96210.22;5037617;28;20045;-74
2023/08/03 09:50:25;;;;;;;0.17;0.17;;;;;;;18.21;60.56;96214.81;5035058;28;20041;-74
2023/08/03 09:52:55;;;;;;;0.10;0.10;;;;;;;18.21;60.32;96208.59;5036309;28;20128;-75
2023/08/03 09:55:29;;;;;;;0.10;0.10;;;;;;;18.21;60.25;96222.09;5035331;28;20040;-74
2023/08/03 09:58:01;;;;;;;0.10;0.10;;;;;;;18.27;60.15;96221.00;5035284;28;20052;-74
2023/08/03 10:00:29;;;;;;;0.10;0.10;;;;;;;18.41;59.89;96230.09;5037573;28;20059;-75
2023/08/03 10:03:01;;;;;;;0.10;0.10;;;;;;;18.53;59.41;96230.59;5033478;28;20099;-75
2023/08/03 10:05:30;;;;;;;0.10;0.10;;;;;;;18.70;58.69;96231.06;5034204;28;20074;-74
2023/08/03 10:07:58;;;;;;;0.10;0.10;;;;;;;18.80;57.80;96208.56;5034947;28;20048;-74
2023/08/03 10:10:29;;;;;;;0.10;0.10;;;;;;;18.84;58.02;96230.44;5027613;28;20044;-74
2023/08/03 10:12:58;;;;;;;0.10;0.10;;;;;;;18.73;58.58;96220.78;5037193;28;20521;-74
2023/08/03 10:15:26;;;;;;;0.10;0.10;;;;;;;18.67;59.07;96237.03;5034030;28;20055;-75
2023/08/03 10:17:54;;;;;;;0.10;0.10;;;;;;;18.64;59.12;96226.78;5025605;28;20057;-75
2023/08/03 10:20:23;;;;;;;0.10;0.10;;;;;;;18.61;59.15;96258.94;5029771;28;20120;-75
2023/08/03 10:23:07;;;;;;;0.10;0.10;;;;;;;18.50;59.58;96251.94;5032751;28;20045;-75
2023/08/03 10:25:51;;;;;;;0.00;0.00;;;;;;;18.49;59.92;96251.13;5034221;28;20037;-74
2023/08/03 10:28:19;;;;;;;0.35;0.35;;;;;;;18.52;59.47;96266.00;5018454;28;20407;-75
2023/08/03 10:31:10;;;;;;;0.10;0.10;;;;;;;18.58;59.66;96252.19;5033760;28;20092;-75
2023/08/03 10:34:03;;;;;;;0.20;0.20;;;;;;;18.76;59.28;96260.78;5023401;28;20140;-75
2023/08/03 10:36:38;;;;;;;0.10;0.10;;;;;;;18.64;58.57;96261.09;5028102;28;20433;-75
2023/08/03 10:39:14;;;;;;;0.20;0.20;;;;;;;18.56;59.29;96250.84;5028391;28;20440;-75
2023/08/03 10:41:44;;;;;;;0.10;0.10;;;;;;;18.57;58.88;96260.59;5029584;28;20625;-75
2023/08/03 10:44:25;;;;;;;0.10;0.10;;;;;;;18.58;59.23;96256.84;5034421;28;20041;-75
2023/08/03 10:46:55;;;;;;;0.10;0.10;;;;;;;18.65;59.51;96257.31;5034599;28;20095;-75
2023/08/03 10:49:49;;;;;;;0.10;0.10;;;;;;;18.83;59.20;96258.56;5027217;28;20042;-76
2023/08/03 10:52:19;;;;;;;0.10;0.10;;;;;;;18.83;58.92;96261.25;5042166;28;20099;-74
2023/08/03 10:54:47;;;;;;;0.10;0.10;;;;;;;18.72;59.35;96270.53;5033814;28;20033;-74
2023/08/03 10:57:18;;;;;;;0.10;0.10;;;;;;;18.57;60.67;96280.34;5025732;28;20406;-75
2023/08/03 10:59:47;;;;;;;0.10;0.10;;;;;;;18.47;61.28;96274.97;5033529;28;20656;-75
2023/08/03 11:02:18;;;;;;;0.10;0.10;;;;;;;18.47;61.38;96272.25;5036173;28;20064;-75
2023/08/03 11:04:47;;;;;;;0.10;0.10;;;;;;;18.53;61.17;96298.16;5031478;28;20046;-77
2023/08/03 11:07:18;;;;;;;0.10;0.10;;;;;;;18.70;61.14;96298.63;5018113;28;20091;-77
2023/08/03 11:09:48;;;;;;;0.10;0.10;;;;;;;18.83;60.48;96282.91;5033195;28;20521;-75
2023/08/03 11:12:17;;;;;;;0.20;0.20;;;;;;;18.88;60.74;96299.09;5024508;28;20475;-75
2023/08/03 11:14:45;;;;;;;0.00;0.00;;;;;;;18.92;60.44;96298.25;5026406;28;20143;-76
2023/08/03 11:17:14;;;;;;;0.10;0.10;;;;;;;18.79;59.75;96301.56;5031347;28;20037;-76
2023/08/03 11:19:41;;;;;;;0.30;0.30;;;;;;;18.63;59.99;96300.84;5032819;28;20402;-74
2023/08/03 11:22:09;;;;;;;0.10;0.10;;;;;;;18.53;60.38;96305.44;5032716;28;20045;-75
2023/08/03 11:24:37;;;;;;;0.20;0.20;;;;;;;18.40;60.28;96284.44;5033283;28;20075;-75
2023/08/03 11:27:05;;;;;;;0.20;0.20;;;;;;;18.51;60.01;96286.00;5034106;28;20045;-75
2023/08/03 11:29:36;;;;;;;0.10;0.10;;;;;;;18.49;60.34;96310.59;5043413;28;20076;-74
2023/08/03 11:32:05;;;;;;;0.10;0.10;;;;;;;18.52;59.90;96307.34;5043132;28;20033;-74
2023/08/03 11:34:33;;;;;;;0.10;0.10;;;;;;;18.44;60.52;96307.13;5041111;28;20103;-74
2023/08/03 11:37:01;;;;;;;0.10;0.10;;;;;;;18.45;60.84;96317.66;5033713;28;20050;-74
2023/08/03 11:39:28;;;;;;;0.30;0.30;;;;;;;18.45;60.57;96320.34;5031980;28;20533;-75
2023/08/03 11:41:57;;;;;;;0.10;0.10;;;;;;;18.43;61.07;96333.31;5038618;28;20128;-75
2023/08/03 11:44:25;;;;;;;0.10;0.10;;;;;;;18.37;61.27;96331.75;5032360;28;20517;-75